GMMN/CMN METAR and TAF weather

Enter ICAO airport designator
Station Type Date Time Source
GMMN METAR 2024/04/23 04:30 UTC NOAA

GMMN 230430Z 06006KT CAVOK 15/09 Q1012 NOSIG


Station Type Date Time Source
GMMN Decoded METAR 2024/04/23 04:30 UTC NOAA

Nouasseur, Morocco (GMMN) 33-22N 007-35W 206M
Apr 23, 2024 - 12:30 AM EDT / 2024.04.23 0430 UTC
Wind: from the ENE (060 degrees) at 7 MPH (6 KT):0
Visibility: greater than 7 mile(s):0
Temperature: 59 F (15 C)
Dew Point: 48 F (9 C)
Relative Humidity: 67%
Pressure (altimeter): 29.88 in. Hg (1012 hPa)
ob: GMMN 230430Z 06006KT CAVOK 15/09 Q1012 NOSIG
cycle: 4

Station Type Date Time Source
GMMN TAF 2024/04/22 18:55 UTC NOAA